Terminal Aerodrome Forecast
Issued by NWS

Home | Current Version | Previous Version | Text Only | Print | Product List | Glossary On
Versions: 1 2 3 4 5 6 7 8 9 10 11 12 13 14 15 16 17 18 19 20 21 22 23 24 25 26 27 28 29 30 31 32 33 34 35 36 37 38 39 40 41 42 43 44 45 46 47 48 49 50
000
FTUS45 KBOU 160002 AAA
TAFBJC
TAF AMD
KBJC 160002Z 1600/1624 34012G24KT P6SM VCSH SCT030 BKN050 BKN220
      TEMPO 1600/1604 2SM -SHSN SCT010 BKN030
     FM160600 08007KT P6SM SCT012 BKN030
     FM160800 15008KT P6SM FEW020
     FM161200 16005KT P6SM FEW220
     FM161900 10007KT P6SM SCT200=

USA.gov is the U.S. government's official web portal to all federal, state and local government web resources and services.